sensor_id;sensor_type;location;lat;lon;timestamp;pressure;altitude;pressure_sealevel;temperature;humidity
28312;BME280;15572;48.810;9.148;2023-04-04T00:00:34;98967.38;;;0.37;70.23
28312;BME280;15572;48.810;9.148;2023-04-04T00:05:31;98959.34;;;0.26;71.33
28312;BME280;15572;48.810;9.148;2023-04-04T00:10:29;98955.16;;;0.22;72.11
28312;BME280;15572;48.810;9.148;2023-04-04T00:15:27;98953.81;;;0.16;72.38
28312;BME280;15572;48.810;9.148;2023-04-04T00:20:24;98947.94;;;0.00;72.69
28312;BME280;15572;48.810;9.148;2023-04-04T00:25:20;98935.94;;;-0.06;73.06
28312;BME280;15572;48.810;9.148;2023-04-04T00:30:17;98934.94;;;-0.05;73.49
28312;BME280;15572;48.810;9.148;2023-04-04T00:35:15;98932.91;;;-0.01;74.21
28312;BME280;15572;48.810;9.148;2023-04-04T00:40:11;98931.63;;;0.05;74.85
28312;BME280;15572;48.810;9.148;2023-04-04T00:45:08;98931.84;;;0.02;75.62
28312;BME280;15572;48.810;9.148;2023-04-04T00:50:06;98920.47;;;-0.01;77.12
28312;BME280;15572;48.810;9.148;2023-04-04T00:55:05;98918.78;;;-0.14;77.24
28312;BME280;15572;48.810;9.148;2023-04-04T01:00:03;98913.97;;;-0.33;77.44
28312;BME280;15572;48.810;9.148;2023-04-04T01:05:02;98907.06;;;-0.35;79.46
28312;BME280;15572;48.810;9.148;2023-04-04T01:09:58;98911.88;;;-0.53;78.94
28312;BME280;15572;48.810;9.148;2023-04-04T01:14:58;98911.59;;;-0.74;80.01
28312;BME280;15572;48.810;9.148;2023-04-04T01:19:59;98911.22;;;-0.93;80.48
28312;BME280;15572;48.810;9.148;2023-04-04T01:24:59;98910.38;;;-0.94;81.74
28312;BME280;15572;48.810;9.148;2023-04-04T01:29:58;98912.69;;;-0.89;82.98
28312;BME280;15572;48.810;9.148;2023-04-04T01:35:01;98911.41;;;-0.83;82.46
28312;BME280;15572;48.810;9.148;2023-04-04T01:40:06;98901.97;;;-0.88;82.64
28312;BME280;15572;48.810;9.148;2023-04-04T01:45:06;98900.78;;;-0.96;82.83
28312;BME280;15572;48.810;9.148;2023-04-04T01:50:04;98904.84;;;-1.03;82.97
28312;BME280;15572;48.810;9.148;2023-04-04T01:55:01;98905.28;;;-0.97;83.75
28312;BME280;15572;48.810;9.148;2023-04-04T01:59:58;98896.75;;;-0.89;84.10
28312;BME280;15572;48.810;9.148;2023-04-04T02:04:56;98900.25;;;-0.76;83.83
28312;BME280;15572;48.810;9.148;2023-04-04T02:09:53;98898.44;;;-0.75;83.14
28312;BME280;15572;48.810;9.148;2023-04-04T02:14:49;98897.06;;;-0.81;83.56
28312;BME280;15572;48.810;9.148;2023-04-04T02:19:46;98896.75;;;-0.89;84.84
28312;BME280;15572;48.810;9.148;2023-04-04T02:24:45;98903.78;;;-1.13;85.20
28312;BME280;15572;48.810;9.148;2023-04-04T02:29:41;98898.03;;;-1.45;86.37
28312;BME280;15572;48.810;9.148;2023-04-04T02:34:38;98903.31;;;-1.58;87.73
28312;BME280;15572;48.810;9.148;2023-04-04T02:39:35;98906.03;;;-1.85;89.45
28312;BME280;15572;48.810;9.148;2023-04-04T02:44:32;98902.59;;;-1.87;89.73
28312;BME280;15572;48.810;9.148;2023-04-04T02:49:30;98899.44;;;-1.79;90.43
28312;BME280;15572;48.810;9.148;2023-04-04T02:54:26;98892.56;;;-1.69;90.00
28312;BME280;15572;48.810;9.148;2023-04-04T02:59:23;98887.69;;;-1.62;90.86
28312;BME280;15572;48.810;9.148;2023-04-04T03:04:21;98895.56;;;-1.61;90.26
28312;BME280;15572;48.810;9.148;2023-04-04T03:09:17;98889.41;;;-1.61;91.61
28312;BME280;15572;48.810;9.148;2023-04-04T03:14:14;98887.88;;;-1.65;92.46
28312;BME280;15572;48.810;9.148;2023-04-04T03:19:10;98888.00;;;-1.67;92.94
28312;BME280;15572;48.810;9.148;2023-04-04T03:24:08;98890.00;;;-1.71;93.69
28312;BME280;15572;48.810;9.148;2023-04-04T03:29:05;98889.19;;;-1.71;92.69
28312;BME280;15572;48.810;9.148;2023-04-04T03:34:01;98888.38;;;-1.86;92.70
28312;BME280;15572;48.810;9.148;2023-04-04T03:38:58;98882.75;;;-1.94;92.48
28312;BME280;15572;48.810;9.148;2023-04-04T03:43:56;98885.44;;;-2.08;92.67
28312;BME280;15572;48.810;9.148;2023-04-04T03:48:52;98886.13;;;-2.04;93.40
28312;BME280;15572;48.810;9.148;2023-04-04T03:53:49;98887.59;;;-2.00;93.98
28312;BME280;15572;48.810;9.148;2023-04-04T03:58:45;98886.59;;;-2.12;93.99
28312;BME280;15572;48.810;9.148;2023-04-04T04:03:43;98890.47;;;-2.03;95.11
28312;BME280;15572;48.810;9.148;2023-04-04T04:08:40;98891.31;;;-2.03;94.66
28312;BME280;15572;48.810;9.148;2023-04-04T04:13:37;98881.97;;;-2.08;95.13
28312;BME280;15572;48.810;9.148;2023-04-04T04:18:34;98892.97;;;-2.41;94.88
28312;BME280;15572;48.810;9.148;2023-04-04T04:23:32;98887.22;;;-2.48;96.74
28312;BME280;15572;48.810;9.148;2023-04-04T04:28:28;98888.78;;;-2.45;97.67
28312;BME280;15572;48.810;9.148;2023-04-04T04:33:26;98890.16;;;-2.52;97.90
28312;BME280;15572;48.810;9.148;2023-04-04T04:38:24;98893.25;;;-2.73;98.04
28312;BME280;15572;48.810;9.148;2023-04-04T04:43:22;98895.88;;;-2.73;98.68
28312;BME280;15572;48.810;9.148;2023-04-04T04:48:19;98898.63;;;-2.88;99.32
28312;BME280;15572;48.810;9.148;2023-04-04T04:53:16;98897.13;;;-2.92;99.43
28312;BME280;15572;48.810;9.148;2023-04-04T04:58:12;98909.91;;;-2.85;99.49
28312;BME280;15572;48.810;9.148;2023-04-04T05:03:12;98905.72;;;-2.75;99.05
28312;BME280;15572;48.810;9.148;2023-04-04T05:08:09;98907.31;;;-2.72;98.70
28312;BME280;15572;48.810;9.148;2023-04-04T05:13:05;98910.72;;;-2.70;99.42
28312;BME280;15572;48.810;9.148;2023-04-04T05:18:02;98913.16;;;-2.53;99.48
28312;BME280;15572;48.810;9.148;2023-04-04T05:23:00;98911.16;;;-2.35;100.00
28312;BME280;15572;48.810;9.148;2023-04-04T05:27:56;98908.63;;;-2.24;100.00
28312;BME280;15572;48.810;9.148;2023-04-04T05:32:53;98916.19;;;-2.18;99.94
28312;BME280;15572;48.810;9.148;2023-04-04T05:37:49;98916.34;;;-2.07;99.20
28312;BME280;15572;48.810;9.148;2023-04-04T05:42:54;98918.28;;;-2.09;99.33
28312;BME280;15572;48.810;9.148;2023-04-04T05:47:50;98923.59;;;-1.96;98.95
28312;BME280;15572;48.810;9.148;2023-04-04T05:52:47;98925.00;;;-1.91;98.53
28312;BME280;15572;48.810;9.148;2023-04-04T05:57:46;98926.31;;;-1.84;98.15
28312;BME280;15572;48.810;9.148;2023-04-04T06:02:45;98919.03;;;-1.67;97.38
28312;BME280;15572;48.810;9.148;2023-04-04T06:07:41;98920.00;;;-1.56;95.86
28312;BME280;15572;48.810;9.148;2023-04-04T06:12:37;98925.72;;;-1.49;95.82
28312;BME280;15572;48.810;9.148;2023-04-04T06:17:34;98923.44;;;-1.41;95.19
28312;BME280;15572;48.810;9.148;2023-04-04T06:22:32;98927.50;;;-1.23;93.39
28312;BME280;15572;48.810;9.148;2023-04-04T06:27:29;98925.16;;;-1.15;90.87
28312;BME280;15572;48.810;9.148;2023-04-04T06:32:25;98918.88;;;-1.01;90.27
28312;BME280;15572;48.810;9.148;2023-04-04T06:37:22;98912.25;;;-0.83;88.17
28312;BME280;15572;48.810;9.148;2023-04-04T06:42:19;98918.63;;;-0.73;85.24
28312;BME280;15572;48.810;9.148;2023-04-04T06:47:16;98923.09;;;-0.61;84.81
28312;BME280;15572;48.810;9.148;2023-04-04T06:52:13;98917.44;;;-0.56;82.77
28312;BME280;15572;48.810;9.148;2023-04-04T06:57:09;98919.44;;;-0.47;81.81
28312;BME280;15572;48.810;9.148;2023-04-04T07:02:07;98908.44;;;-0.30;81.38
28312;BME280;15572;48.810;9.148;2023-04-04T07:07:04;98904.13;;;-0.20;79.64
28312;BME280;15572;48.810;9.148;2023-04-04T07:12:00;98899.09;;;-0.12;79.13
28312;BME280;15572;48.810;9.148;2023-04-04T07:16:56;98909.31;;;-0.06;78.50
28312;BME280;15572;48.810;9.148;2023-04-04T07:21:54;98906.56;;;0.07;78.49
28312;BME280;15572;48.810;9.148;2023-04-04T07:26:51;98906.41;;;0.21;76.90
28312;BME280;15572;48.810;9.148;2023-04-04T07:31:47;98913.00;;;0.39;76.10
28312;BME280;15572;48.810;9.148;2023-04-04T07:36:44;98912.69;;;0.55;73.09
28312;BME280;15572;48.810;9.148;2023-04-04T07:41:42;98912.25;;;0.72;72.93
28312;BME280;15572;48.810;9.148;2023-04-04T07:46:38;98905.25;;;0.94;71.44
28312;BME280;15572;48.810;9.148;2023-04-04T07:51:35;98909.03;;;1.13;67.84
28312;BME280;15572;48.810;9.148;2023-04-04T07:56:32;98911.22;;;1.31;66.06
28312;BME280;15572;48.810;9.148;2023-04-04T08:01:29;98909.16;;;1.45;64.67
28312;BME280;15572;48.810;9.148;2023-04-04T08:06:26;98905.03;;;1.63;62.34
28312;BME280;15572;48.810;9.148;2023-04-04T08:11:22;98901.50;;;1.74;62.32
28312;BME280;15572;48.810;9.148;2023-04-04T08:16:19;98903.28;;;1.85;60.96
28312;BME280;15572;48.810;9.148;2023-04-04T08:21:17;98896.94;;;1.97;61.37
28312;BME280;15572;48.810;9.148;2023-04-04T08:26:14;98900.19;;;2.11;60.19
28312;BME280;15572;48.810;9.148;2023-04-04T08:31:10;98906.06;;;2.26;59.80
28312;BME280;15572;48.810;9.148;2023-04-04T08:36:07;98902.97;;;2.42;59.68
28312;BME280;15572;48.810;9.148;2023-04-04T08:41:05;98897.56;;;2.53;59.28
28312;BME280;15572;48.810;9.148;2023-04-04T08:46:03;98893.41;;;2.60;58.23
28312;BME280;15572;48.810;9.148;2023-04-04T08:51:02;98900.97;;;2.76;58.44
28312;BME280;15572;48.810;9.148;2023-04-04T08:55:59;98889.53;;;2.94;56.64
28312;BME280;15572;48.810;9.148;2023-04-04T09:00:57;98894.13;;;3.04;56.20
28312;BME280;15572;48.810;9.148;2023-04-04T09:05:54;98896.16;;;3.21;55.19
28312;BME280;15572;48.810;9.148;2023-04-04T09:10:51;98903.13;;;3.33;54.49
28312;BME280;15572;48.810;9.148;2023-04-04T09:15:50;98894.19;;;3.53;53.78
28312;BME280;15572;48.810;9.148;2023-04-04T09:20:49;98899.75;;;3.80;53.77
28312;BME280;15572;48.810;9.148;2023-04-04T09:25:47;98888.50;;;3.96;51.88
28312;BME280;15572;48.810;9.148;2023-04-04T09:30:46;98887.09;;;3.92;49.78
28312;BME280;15572;48.810;9.148;2023-04-04T09:35:45;98891.66;;;4.20;49.00
28312;BME280;15572;48.810;9.148;2023-04-04T09:40:43;98904.22;;;4.49;50.32
28312;BME280;15572;48.810;9.148;2023-04-04T09:45:43;98894.22;;;4.51;50.39
28312;BME280;15572;48.810;9.148;2023-04-04T09:50:45;98897.44;;;4.35;49.13
28312;BME280;15572;48.810;9.148;2023-04-04T09:55:49;98897.19;;;4.48;49.05
28312;BME280;15572;48.810;9.148;2023-04-04T10:00:46;98902.41;;;4.69;48.96
28312;BME280;15572;48.810;9.148;2023-04-04T10:05:44;98901.81;;;4.84;49.52
28312;BME280;15572;48.810;9.148;2023-04-04T10:16:43;98881.78;;;4.79;49.12
28312;BME280;15572;48.810;9.148;2023-04-04T10:21:40;98888.06;;;5.06;49.09
28312;BME280;15572;48.810;9.148;2023-04-04T10:26:37;98875.53;;;5.34;48.00
28312;BME280;15572;48.810;9.148;2023-04-04T10:31:38;98886.16;;;5.26;48.11
28312;BME280;15572;48.810;9.148;2023-04-04T10:36:43;98878.38;;;5.33;48.63
28312;BME280;15572;48.810;9.148;2023-04-04T10:41:40;98869.22;;;5.26;46.39
28312;BME280;15572;48.810;9.148;2023-04-04T10:46:40;98875.53;;;5.34;48.69
28312;BME280;15572;48.810;9.148;2023-04-04T10:51:38;98867.47;;;5.71;47.90
28312;BME280;15572;48.810;9.148;2023-04-04T10:56:36;98866.91;;;5.95;45.92
28312;BME280;15572;48.810;9.148;2023-04-04T11:01:50;98855.75;;;6.35;44.10
28312;BME280;15572;48.810;9.148;2023-04-04T11:07:08;98864.47;;;6.55;44.45
28312;BME280;15572;48.810;9.148;2023-04-04T11:12:08;98846.50;;;6.99;44.19
28312;BME280;15572;48.810;9.148;2023-04-04T11:17:07;98840.63;;;7.37;42.52
28312;BME280;15572;48.810;9.148;2023-04-04T11:22:04;98840.41;;;8.15;41.27
28312;BME280;15572;48.810;9.148;2023-04-04T11:27:00;98841.97;;;9.14;39.13
28312;BME280;15572;48.810;9.148;2023-04-04T11:31:57;98841.53;;;9.89;38.19
28312;BME280;15572;48.810;9.148;2023-04-04T11:36:55;98837.38;;;10.40;37.06
28312;BME280;15572;48.810;9.148;2023-04-04T11:41:53;98834.13;;;10.67;36.66
28312;BME280;15572;48.810;9.148;2023-04-04T11:47:08;98823.75;;;11.08;35.67
28312;BME280;15572;48.810;9.148;2023-04-04T11:52:08;98824.84;;;10.84;36.60
28312;BME280;15572;48.810;9.148;2023-04-04T11:57:05;98820.75;;;10.88;35.55
28312;BME280;15572;48.810;9.148;2023-04-04T12:02:02;98821.25;;;10.24;35.83
28312;BME280;15572;48.810;9.148;2023-04-04T12:06:59;98821.19;;;9.62;36.13
28312;BME280;15572;48.810;9.148;2023-04-04T12:11:57;98814.78;;;10.70;34.34
28312;BME280;15572;48.810;9.148;2023-04-04T12:16:55;98811.75;;;10.50;34.98
28312;BME280;15572;48.810;9.148;2023-04-04T12:21:55;98811.38;;;10.53;34.40
28312;BME280;15572;48.810;9.148;2023-04-04T12:26:52;98804.44;;;10.36;36.45
28312;BME280;15572;48.810;9.148;2023-04-04T12:31:52;98815.44;;;11.10;35.78
28312;BME280;15572;48.810;9.148;2023-04-04T12:36:50;98814.09;;;12.44;32.93
28312;BME280;15572;48.810;9.148;2023-04-04T12:41:50;98799.16;;;12.34;32.66
28312;BME280;15572;48.810;9.148;2023-04-04T12:46:49;98793.75;;;13.11;31.94
28312;BME280;15572;48.810;9.148;2023-04-04T12:51:46;98786.19;;;13.06;32.00
28312;BME280;15572;48.810;9.148;2023-04-04T12:56:42;98779.38;;;11.09;32.04
28312;BME280;15572;48.810;9.148;2023-04-04T13:01:39;98778.81;;;10.99;32.07
28312;BME280;15572;48.810;9.148;2023-04-04T13:06:37;98771.88;;;10.96;33.81
28312;BME280;15572;48.810;9.148;2023-04-04T13:11:57;98762.16;;;12.33;32.09
28312;BME280;15572;48.810;9.148;2023-04-04T13:17:01;98771.53;;;13.28;31.95
28312;BME280;15572;48.810;9.148;2023-04-04T13:22:01;98761.53;;;13.76;31.23
28312;BME280;15572;48.810;9.148;2023-04-04T13:26:57;98757.91;;;14.30;30.41
28312;BME280;15572;48.810;9.148;2023-04-04T13:31:54;98740.63;;;13.90;29.28
28312;BME280;15572;48.810;9.148;2023-04-04T13:36:51;98748.34;;;13.80;30.12
28312;BME280;15572;48.810;9.148;2023-04-04T13:41:48;98729.00;;;12.93;30.96
28312;BME280;15572;48.810;9.148;2023-04-04T13:46:45;98723.03;;;11.05;31.43
28312;BME280;15572;48.810;9.148;2023-04-04T13:51:42;98728.38;;;10.98;34.49
28312;BME280;15572;48.810;9.148;2023-04-04T13:56:38;98728.28;;;11.21;34.45
28312;BME280;15572;48.810;9.148;2023-04-04T14:01:36;98730.88;;;11.29;33.59
28312;BME280;15572;48.810;9.148;2023-04-04T14:06:33;98720.50;;;10.88;34.44
28312;BME280;15572;48.810;9.148;2023-04-04T14:11:29;98723.66;;;10.63;35.38
28312;BME280;15572;48.810;9.148;2023-04-04T14:16:26;98708.00;;;10.73;34.25
28312;BME280;15572;48.810;9.148;2023-04-04T14:21:24;98710.00;;;10.56;34.52
28312;BME280;15572;48.810;9.148;2023-04-04T14:26:20;98713.97;;;10.31;35.37
28312;BME280;15572;48.810;9.148;2023-04-04T14:31:17;98700.72;;;10.13;34.42
28312;BME280;15572;48.810;9.148;2023-04-04T14:36:13;98703.16;;;10.31;36.34
28312;BME280;15572;48.810;9.148;2023-04-04T14:41:11;98707.78;;;9.68;34.52
28312;BME280;15572;48.810;9.148;2023-04-04T14:46:08;98701.31;;;9.55;37.03
28312;BME280;15572;48.810;9.148;2023-04-04T14:51:05;98704.75;;;9.94;36.05
28312;BME280;15572;48.810;9.148;2023-04-04T14:56:02;98695.91;;;9.55;36.02
28312;BME280;15572;48.810;9.148;2023-04-04T15:01:00;98702.34;;;9.99;35.36
28312;BME280;15572;48.810;9.148;2023-04-04T15:05:56;98696.97;;;9.68;34.83
28312;BME280;15572;48.810;9.148;2023-04-04T15:10:53;98693.44;;;9.68;36.42
28312;BME280;15572;48.810;9.148;2023-04-04T15:15:50;98697.19;;;10.35;35.85
28312;BME280;15572;48.810;9.148;2023-04-04T15:20:48;98695.97;;;10.52;34.42
28312;BME280;15572;48.810;9.148;2023-04-04T15:25:44;98689.47;;;10.01;35.98
28312;BME280;15572;48.810;9.148;2023-04-04T15:30:40;98686.34;;;9.36;37.43
28312;BME280;15572;48.810;9.148;2023-04-04T15:35:37;98691.00;;;9.81;37.31
28312;BME280;15572;48.810;9.148;2023-04-04T15:40:35;98689.88;;;9.67;36.54
28312;BME280;15572;48.810;9.148;2023-04-04T15:45:31;98680.41;;;9.94;37.49
28312;BME280;15572;48.810;9.148;2023-04-04T15:50:28;98681.78;;;9.90;35.61
28312;BME280;15572;48.810;9.148;2023-04-04T15:55:25;98681.00;;;10.04;37.78
28312;BME280;15572;48.810;9.148;2023-04-04T16:00:25;98682.38;;;10.00;36.73
28312;BME280;15572;48.810;9.148;2023-04-04T16:05:23;98686.66;;;10.40;37.03
28312;BME280;15572;48.810;9.148;2023-04-04T16:10:19;98681.28;;;10.18;36.31
28312;BME280;15572;48.810;9.148;2023-04-04T16:15:16;98675.91;;;10.09;36.37
28312;BME280;15572;48.810;9.148;2023-04-04T16:20:14;98669.94;;;9.68;36.91
28312;BME280;15572;48.810;9.148;2023-04-04T16:25:11;98674.31;;;9.47;37.48
28312;BME280;15572;48.810;9.148;2023-04-04T16:30:09;98665.25;;;8.54;38.82
28312;BME280;15572;48.810;9.148;2023-04-04T16:35:07;98670.97;;;8.51;39.46
28312;BME280;15572;48.810;9.148;2023-04-04T16:40:06;98665.94;;;8.15;39.58
28312;BME280;15572;48.810;9.148;2023-04-04T16:45:03;98664.44;;;7.88;40.84
28312;BME280;15572;48.810;9.148;2023-04-04T16:50:02;98656.69;;;7.77;40.55
28312;BME280;15572;48.810;9.148;2023-04-04T16:54:58;98662.56;;;7.56;40.79
28312;BME280;15572;48.810;9.148;2023-04-04T16:59:56;98656.84;;;7.68;41.81
28312;BME280;15572;48.810;9.148;2023-04-04T17:04:53;98656.16;;;7.66;41.51
28312;BME280;15572;48.810;9.148;2023-04-04T17:09:49;98660.19;;;7.53;42.34
28312;BME280;15572;48.810;9.148;2023-04-04T17:14:46;98657.97;;;7.33;42.37
28312;BME280;15572;48.810;9.148;2023-04-04T17:19:44;98660.38;;;6.94;42.84
28312;BME280;15572;48.810;9.148;2023-04-04T17:24:40;98662.47;;;6.74;43.43
28312;BME280;15572;48.810;9.148;2023-04-04T17:29:37;98661.03;;;6.54;44.19
28312;BME280;15572;48.810;9.148;2023-04-04T17:34:33;98659.31;;;6.45;44.49
28312;BME280;15572;48.810;9.148;2023-04-04T17:39:31;98658.59;;;6.43;44.57
28312;BME280;15572;48.810;9.148;2023-04-04T17:44:28;98657.00;;;6.24;45.43
28312;BME280;15572;48.810;9.148;2023-04-04T17:49:24;98654.66;;;6.03;45.88
28312;BME280;15572;48.810;9.148;2023-04-04T17:54:21;98656.63;;;5.83;47.43
28312;BME280;15572;48.810;9.148;2023-04-04T17:59:21;98663.41;;;5.70;47.74
28312;BME280;15572;48.810;9.148;2023-04-04T18:04:18;98658.19;;;5.50;48.42
28312;BME280;15572;48.810;9.148;2023-04-04T18:09:16;98662.13;;;5.38;49.09
28312;BME280;15572;48.810;9.148;2023-04-04T18:14:12;98668.94;;;5.33;50.58
28312;BME280;15572;48.810;9.148;2023-04-04T18:19:10;98672.69;;;5.22;50.15
28312;BME280;15572;48.810;9.148;2023-04-04T18:24:07;98671.53;;;5.07;50.33
28312;BME280;15572;48.810;9.148;2023-04-04T18:29:05;98676.38;;;4.94;50.62
28312;BME280;15572;48.810;9.148;2023-04-04T18:34:02;98671.22;;;4.83;51.24
28312;BME280;15572;48.810;9.148;2023-04-04T18:39:00;98684.69;;;4.73;51.42
28312;BME280;15572;48.810;9.148;2023-04-04T18:43:57;98674.00;;;4.63;51.25
28312;BME280;15572;48.810;9.148;2023-04-04T18:48:54;98690.94;;;4.54;52.13
28312;BME280;15572;48.810;9.148;2023-04-04T18:53:50;98687.03;;;4.49;52.02
28312;BME280;15572;48.810;9.148;2023-04-04T18:58:48;98686.06;;;4.40;52.05
28312;BME280;15572;48.810;9.148;2023-04-04T19:03:45;98694.00;;;4.32;52.92
28312;BME280;15572;48.810;9.148;2023-04-04T19:08:43;98699.53;;;4.21;53.45
28312;BME280;15572;48.810;9.148;2023-04-04T19:13:39;98703.22;;;4.10;54.12
28312;BME280;15572;48.810;9.148;2023-04-04T19:18:37;98709.16;;;4.04;54.50
28312;BME280;15572;48.810;9.148;2023-04-04T19:23:33;98708.03;;;3.97;54.72
28312;BME280;15572;48.810;9.148;2023-04-04T19:28:31;98706.63;;;3.93;54.82
28312;BME280;15572;48.810;9.148;2023-04-04T19:33:31;98706.63;;;3.84;54.92
28312;BME280;15572;48.810;9.148;2023-04-04T19:38:31;98723.41;;;3.76;55.28
28312;BME280;15572;48.810;9.148;2023-04-04T19:43:29;98717.91;;;3.68;55.57
28312;BME280;15572;48.810;9.148;2023-04-04T19:48:37;98718.59;;;3.60;55.01
28312;BME280;15572;48.810;9.148;2023-04-04T19:53:36;98718.47;;;3.52;55.93
28312;BME280;15572;48.810;9.148;2023-04-04T19:58:36;98717.19;;;3.47;55.85
28312;BME280;15572;48.810;9.148;2023-04-04T20:03:33;98719.03;;;3.36;55.87
28312;BME280;15572;48.810;9.148;2023-04-04T20:08:40;98724.06;;;3.30;56.27
28312;BME280;15572;48.810;9.148;2023-04-04T20:19:24;98718.66;;;3.11;57.06
28312;BME280;15572;48.810;9.148;2023-04-04T20:24:34;98725.56;;;3.04;57.51
28312;BME280;15572;48.810;9.148;2023-04-04T20:29:32;98736.69;;;2.99;58.66
28312;BME280;15572;48.810;9.148;2023-04-04T20:34:32;98733.81;;;2.91;58.69
28312;BME280;15572;48.810;9.148;2023-04-04T20:39:41;98734.97;;;2.88;59.55
28312;BME280;15572;48.810;9.148;2023-04-04T20:44:39;98738.00;;;2.84;60.15
28312;BME280;15572;48.810;9.148;2023-04-04T20:49:35;98733.75;;;2.72;60.64
28312;BME280;15572;48.810;9.148;2023-04-04T20:54:34;98739.31;;;2.59;61.11
28312;BME280;15572;48.810;9.148;2023-04-04T20:59:34;98738.84;;;2.44;62.06
28312;BME280;15572;48.810;9.148;2023-04-04T21:04:31;98736.56;;;2.40;62.71
28312;BME280;15572;48.810;9.148;2023-04-04T21:09:28;98740.28;;;2.28;63.07
28312;BME280;15572;48.810;9.148;2023-04-04T21:14:31;98733.06;;;2.19;63.66
28312;BME280;15572;48.810;9.148;2023-04-04T21:19:30;98727.97;;;2.16;65.07
28312;BME280;15572;48.810;9.148;2023-04-04T21:24:31;98725.69;;;2.11;66.56
28312;BME280;15572;48.810;9.148;2023-04-04T21:29:29;98723.66;;;2.03;66.85
28312;BME280;15572;48.810;9.148;2023-04-04T21:34:26;98726.88;;;1.97;67.58
28312;BME280;15572;48.810;9.148;2023-04-04T21:39:26;98732.13;;;1.88;68.26
28312;BME280;15572;48.810;9.148;2023-04-04T21:44:23;98729.38;;;1.78;68.49
28312;BME280;15572;48.810;9.148;2023-04-04T21:49:20;98726.38;;;1.72;68.69
28312;BME280;15572;48.810;9.148;2023-04-04T21:54:18;98733.06;;;1.66;68.81
28312;BME280;15572;48.810;9.148;2023-04-04T21:59:15;98731.28;;;1.55;70.15
28312;BME280;15572;48.810;9.148;2023-04-04T22:04:12;98729.66;;;1.43;72.17
28312;BME280;15572;48.810;9.148;2023-04-04T22:09:08;98735.34;;;1.07;72.17
28312;BME280;15572;48.810;9.148;2023-04-04T22:14:06;98738.63;;;0.77;73.14
28312;BME280;15572;48.810;9.148;2023-04-04T22:19:03;98736.56;;;0.80;74.81
28312;BME280;15572;48.810;9.148;2023-04-04T22:24:01;98739.47;;;0.77;75.96
28312;BME280;15572;48.810;9.148;2023-04-04T22:28:58;98744.91;;;0.65;76.64
28312;BME280;15572;48.810;9.148;2023-04-04T22:33:55;98738.50;;;0.56;77.30
28312;BME280;15572;48.810;9.148;2023-04-04T22:38:53;98728.44;;;0.49;77.79
28312;BME280;15572;48.810;9.148;2023-04-04T22:43:51;98740.09;;;0.36;78.26
28312;BME280;15572;48.810;9.148;2023-04-04T22:48:48;98735.97;;;0.21;78.63
28312;BME280;15572;48.810;9.148;2023-04-04T22:53:44;98728.88;;;-0.02;78.59
28312;BME280;15572;48.810;9.148;2023-04-04T22:58:42;98726.44;;;-0.16;78.98
28312;BME280;15572;48.810;9.148;2023-04-04T23:03:38;98729.91;;;-0.27;80.16
28312;BME280;15572;48.810;9.148;2023-04-04T23:08:35;98720.94;;;-0.26;80.32
28312;BME280;15572;48.810;9.148;2023-04-04T23:13:32;98725.91;;;-0.21;81.58
28312;BME280;15572;48.810;9.148;2023-04-04T23:18:32;98718.09;;;-0.12;82.40
28312;BME280;15572;48.810;9.148;2023-04-04T23:23:28;98715.78;;;-0.05;83.10
28312;BME280;15572;48.810;9.148;2023-04-04T23:28:28;98712.16;;;-0.04;84.27
28312;BME280;15572;48.810;9.148;2023-04-04T23:33:24;98705.03;;;-0.04;84.35
28312;BME280;15572;48.810;9.148;2023-04-04T23:38:22;98706.22;;;-0.19;83.95
28312;BME280;15572;48.810;9.148;2023-04-04T23:43:18;98698.16;;;-0.41;83.84
28312;BME280;15572;48.810;9.148;2023-04-04T23:48:15;98698.47;;;-0.57;84.31
28312;BME280;15572;48.810;9.148;2023-04-04T23:53:12;98703.22;;;-0.49;85.32
28312;BME280;15572;48.810;9.148;2023-04-04T23:58:09;98696.00;;;-0.36;85.85
